sensor_id;sensor_type;location;lat;lon;timestamp;pressure;altitude;pressure_sealevel;temperature;humidity
23170;BME280;11753;43.144;24.714;2023-03-01T00:00:19;100500.88;;;6.29;100.00
23170;BME280;11753;43.144;24.714;2023-03-01T00:01:22;100489.91;;;6.24;100.00
23170;BME280;11753;43.144;24.714;2023-03-01T00:02:23;100500.13;;;6.14;100.00
23170;BME280;11753;43.144;24.714;2023-03-01T00:03:24;100497.00;;;6.22;100.00
23170;BME280;11753;43.144;24.714;2023-03-01T00:04:25;100491.97;;;6.19;100.00
23170;BME280;11753;43.144;24.714;2023-03-01T00:05:27;100494.06;;;6.26;100.00
23170;BME280;11753;43.144;24.714;2023-03-01T00:06:28;100485.69;;;6.34;100.00
23170;BME280;11753;43.144;24.714;2023-03-01T00:07:29;100482.97;;;6.35;100.00
23170;BME280;11753;43.144;24.714;2023-03-01T00:08:31;100479.75;;;6.32;100.00
23170;BME280;11753;43.144;24.714;2023-03-01T00:09:33;100487.38;;;6.35;100.00
23170;BME280;11753;43.144;24.714;2023-03-01T00:10:34;100479.84;;;6.30;100.00
23170;BME280;11753;43.144;24.714;2023-03-01T00:11:35;100485.91;;;6.31;100.00
23170;BME280;11753;43.144;24.714;2023-03-01T00:12:36;100479.44;;;6.37;100.00
23170;BME280;11753;43.144;24.714;2023-03-01T00:13:37;100483.59;;;6.39;100.00
23170;BME280;11753;43.144;24.714;2023-03-01T00:14:38;100484.22;;;6.43;100.00
23170;BME280;11753;43.144;24.714;2023-03-01T00:15:40;100477.00;;;6.46;100.00
23170;BME280;11753;43.144;24.714;2023-03-01T00:16:43;100481.09;;;6.50;100.00
23170;BME280;11753;43.144;24.714;2023-03-01T00:17:44;100476.91;;;6.48;100.00
23170;BME280;11753;43.144;24.714;2023-03-01T00:18:45;100480.47;;;6.59;100.00
23170;BME280;11753;43.144;24.714;2023-03-01T00:19:46;100473.25;;;6.50;100.00
23170;BME280;11753;43.144;24.714;2023-03-01T00:20:52;100479.44;;;6.37;100.00
23170;BME280;11753;43.144;24.714;2023-03-01T00:21:53;100471.69;;;6.22;100.00
23170;BME280;11753;43.144;24.714;2023-03-01T00:22:54;100469.38;;;6.18;100.00
23170;BME280;11753;43.144;24.714;2023-03-01T00:23:56;100459.66;;;6.20;100.00
23170;BME280;11753;43.144;24.714;2023-03-01T00:24:57;100455.19;;;6.22;100.00
23170;BME280;11753;43.144;24.714;2023-03-01T00:25:58;100453.81;;;6.29;100.00
23170;BME280;11753;43.144;24.714;2023-03-01T00:26:59;100455.97;;;6.35;100.00
23170;BME280;11753;43.144;24.714;2023-03-01T00:28:00;100451.81;;;6.45;100.00
23170;BME280;11753;43.144;24.714;2023-03-01T00:29:01;100456.63;;;6.26;100.00
23170;BME280;11753;43.144;24.714;2023-03-01T00:30:02;100456.44;;;6.29;100.00
23170;BME280;11753;43.144;24.714;2023-03-01T00:31:09;100451.28;;;6.27;100.00
23170;BME280;11753;43.144;24.714;2023-03-01T00:32:10;100453.47;;;6.21;100.00
23170;BME280;11753;43.144;24.714;2023-03-01T00:33:11;100452.22;;;6.14;100.00
23170;BME280;11753;43.144;24.714;2023-03-01T00:34:12;100455.78;;;6.13;100.00
23170;BME280;11753;43.144;24.714;2023-03-01T00:35:13;100452.22;;;6.14;100.00
23170;BME280;11753;43.144;24.714;2023-03-01T00:36:15;100462.91;;;6.11;100.00
23170;BME280;11753;43.144;24.714;2023-03-01T00:37:16;100459.66;;;6.07;100.00
23170;BME280;11753;43.144;24.714;2023-03-01T00:38:17;100459.75;;;6.05;100.00
23170;BME280;11753;43.144;24.714;2023-03-01T00:39:18;100464.53;;;5.86;100.00
23170;BME280;11753;43.144;24.714;2023-03-01T00:40:18;100462.66;;;5.88;100.00
23170;BME280;11753;43.144;24.714;2023-03-01T00:41:20;100462.06;;;5.97;100.00
23170;BME280;11753;43.144;24.714;2023-03-01T00:42:23;100455.16;;;5.96;100.00
23170;BME280;11753;43.144;24.714;2023-03-01T00:43:24;100454.63;;;5.91;100.00
23170;BME280;11753;43.144;24.714;2023-03-01T00:44:25;100465.38;;;5.87;100.00
23170;BME280;11753;43.144;24.714;2023-03-01T00:45:26;100454.28;;;5.83;100.00
23170;BME280;11753;43.144;24.714;2023-03-01T00:46:27;100457.59;;;5.85;100.00
23170;BME280;11753;43.144;24.714;2023-03-01T00:47:30;100455.75;;;5.87;100.00
23170;BME280;11753;43.144;24.714;2023-03-01T00:48:32;100453.88;;;5.89;100.00
23170;BME280;11753;43.144;24.714;2023-03-01T00:49:33;100448.44;;;5.92;100.00
23170;BME280;11753;43.144;24.714;2023-03-01T00:50:38;100446.38;;;5.97;100.00
23170;BME280;11753;43.144;24.714;2023-03-01T00:51:39;100447.00;;;6.01;100.00
23170;BME280;11753;43.144;24.714;2023-03-01T00:52:41;100441.25;;;5.96;100.00
23170;BME280;11753;43.144;24.714;2023-03-01T00:53:43;100428.38;;;6.05;100.00
23170;BME280;11753;43.144;24.714;2023-03-01T00:54:44;100438.53;;;6.10;100.00
23170;BME280;11753;43.144;24.714;2023-03-01T00:55:45;100428.59;;;6.02;100.00
23170;BME280;11753;43.144;24.714;2023-03-01T00:56:46;100436.34;;;6.17;100.00
23170;BME280;11753;43.144;24.714;2023-03-01T00:57:47;100425.06;;;6.03;100.00
23170;BME280;11753;43.144;24.714;2023-03-01T00:58:48;100421.06;;;5.98;100.00
23170;BME280;11753;43.144;24.714;2023-03-01T00:59:49;100418.34;;;5.99;100.00
23170;BME280;11753;43.144;24.714;2023-03-01T01:00:50;100419.81;;;6.03;100.00
23170;BME280;11753;43.144;24.714;2023-03-01T01:01:52;100413.53;;;6.06;100.00
23170;BME280;11753;43.144;24.714;2023-03-01T01:02:53;100425.66;;;6.07;100.00
23170;BME280;11753;43.144;24.714;2023-03-01T01:03:57;100416.69;;;5.98;100.00
23170;BME280;11753;43.144;24.714;2023-03-01T01:05:02;100406.75;;;6.03;100.00
23170;BME280;11753;43.144;24.714;2023-03-01T01:06:03;100415.72;;;5.99;100.00
23170;BME280;11753;43.144;24.714;2023-03-01T01:07:09;100425.16;;;6.15;100.00
23170;BME280;11753;43.144;24.714;2023-03-01T01:08:11;100418.75;;;6.19;100.00
23170;BME280;11753;43.144;24.714;2023-03-01T01:09:14;100419.41;;;6.10;100.00
23170;BME280;11753;43.144;24.714;2023-03-01T01:10:19;100415.00;;;6.10;100.00
23170;BME280;11753;43.144;24.714;2023-03-01T01:11:21;100410.31;;;6.15;100.00
23170;BME280;11753;43.144;24.714;2023-03-01T01:12:22;100416.25;;;6.17;100.00
23170;BME280;11753;43.144;24.714;2023-03-01T01:13:23;100409.56;;;6.26;100.00
23170;BME280;11753;43.144;24.714;2023-03-01T01:14:24;100412.69;;;6.18;100.00
23170;BME280;11753;43.144;24.714;2023-03-01T01:15:25;100412.28;;;6.12;100.00
23170;BME280;11753;43.144;24.714;2023-03-01T01:16:28;100409.47;;;6.15;100.00
23170;BME280;11753;43.144;24.714;2023-03-01T01:17:29;100407.06;;;6.12;100.00
23170;BME280;11753;43.144;24.714;2023-03-01T01:18:30;100408.31;;;6.19;100.00
23170;BME280;11753;43.144;24.714;2023-03-01T01:19:31;100406.22;;;6.24;100.00
23170;BME280;11753;43.144;24.714;2023-03-01T01:20:32;100408.50;;;6.28;100.00
23170;BME280;11753;43.144;24.714;2023-03-01T01:21:35;100403.38;;;6.27;100.00
23170;BME280;11753;43.144;24.714;2023-03-01T01:22:36;100401.50;;;6.29;100.00
23170;BME280;11753;43.144;24.714;2023-03-01T01:23:39;100411.03;;;6.30;100.00
23170;BME280;11753;43.144;24.714;2023-03-01T01:24:40;100407.47;;;6.31;100.00
23170;BME280;11753;43.144;24.714;2023-03-01T01:25:41;100405.81;;;6.30;100.00
23170;BME280;11753;43.144;24.714;2023-03-01T01:26:41;100412.59;;;6.32;100.00
23170;BME280;11753;43.144;24.714;2023-03-01T01:27:42;100409.44;;;6.40;100.00
23170;BME280;11753;43.144;24.714;2023-03-01T01:28:42;100417.28;;;6.40;100.00
23170;BME280;11753;43.144;24.714;2023-03-01T01:29:43;100413.09;;;6.38;100.00
23170;BME280;11753;43.144;24.714;2023-03-01T01:30:44;100411.31;;;6.38;100.00
23170;BME280;11753;43.144;24.714;2023-03-01T01:31:45;100410.25;;;6.41;100.00
23170;BME280;11753;43.144;24.714;2023-03-01T01:32:46;100409.72;;;6.48;100.00
23170;BME280;11753;43.144;24.714;2023-03-01T01:33:47;100420.94;;;6.50;100.00
23170;BME280;11753;43.144;24.714;2023-03-01T01:34:47;100418.09;;;6.53;100.00
23170;BME280;11753;43.144;24.714;2023-03-01T01:35:48;100413.09;;;6.50;100.00
23170;BME280;11753;43.144;24.714;2023-03-01T01:36:53;100412.13;;;6.51;100.00
23170;BME280;11753;43.144;24.714;2023-03-01T01:37:54;100408.34;;;6.55;100.00
23170;BME280;11753;43.144;24.714;2023-03-01T01:38:55;100415.16;;;6.58;100.00
23170;BME280;11753;43.144;24.714;2023-03-01T01:39:59;100415.38;;;6.55;100.00
23170;BME280;11753;43.144;24.714;2023-03-01T01:41:00;100419.75;;;6.54;100.00
23170;BME280;11753;43.144;24.714;2023-03-01T01:42:02;100416.06;;;6.57;100.00
23170;BME280;11753;43.144;24.714;2023-03-01T01:43:04;100422.91;;;6.59;100.00
23170;BME280;11753;43.144;24.714;2023-03-01T01:44:21;100417.22;;;6.66;100.00
23170;BME280;11753;43.144;24.714;2023-03-01T01:45:35;100419.63;;;6.69;100.00
23170;BME280;11753;43.144;24.714;2023-03-01T01:46:44;100413.44;;;6.70;100.00
23170;BME280;11753;43.144;24.714;2023-03-01T01:47:46;100416.81;;;6.72;100.00
23170;BME280;11753;43.144;24.714;2023-03-01T01:49:26;100415.34;;;6.68;100.00
23170;BME280;11753;43.144;24.714;2023-03-01T01:50:28;100410.09;;;6.68;100.00
23170;BME280;11753;43.144;24.714;2023-03-01T01:51:40;100410.94;;;6.68;100.00
23170;BME280;11753;43.144;24.714;2023-03-01T01:52:42;100421.41;;;6.68;100.00
23170;BME280;11753;43.144;24.714;2023-03-01T01:53:45;100413.56;;;6.68;100.00
23170;BME280;11753;43.144;24.714;2023-03-01T01:55:56;100417.00;;;6.69;100.00
23170;BME280;11753;43.144;24.714;2023-03-01T01:57:04;100418.56;;;6.71;100.00
23170;BME280;11753;43.144;24.714;2023-03-01T01:58:08;100420.03;;;6.75;100.00
23170;BME280;11753;43.144;24.714;2023-03-01T01:59:12;100423.03;;;6.82;100.00
23170;BME280;11753;43.144;24.714;2023-03-01T02:00:18;100415.09;;;6.71;100.00
23170;BME280;11753;43.144;24.714;2023-03-01T02:01:20;100408.22;;;6.70;100.00
23170;BME280;11753;43.144;24.714;2023-03-01T02:02:21;100414.38;;;6.69;100.00
23170;BME280;11753;43.144;24.714;2023-03-01T02:03:31;100410.72;;;6.71;100.00
23170;BME280;11753;43.144;24.714;2023-03-01T02:04:38;100418.25;;;6.76;100.00
23170;BME280;11753;43.144;24.714;2023-03-01T02:06:03;100418.03;;;6.79;100.00
23170;BME280;11753;43.144;24.714;2023-03-01T02:07:13;100404.88;;;6.68;100.00
23170;BME280;11753;43.144;24.714;2023-03-01T02:08:17;100408.31;;;6.68;100.00
23170;BME280;11753;43.144;24.714;2023-03-01T02:09:20;100411.56;;;6.72;100.00
23170;BME280;11753;43.144;24.714;2023-03-01T02:10:23;100404.69;;;6.58;100.00
23170;BME280;11753;43.144;24.714;2023-03-01T02:11:25;100401.25;;;6.57;100.00
23170;BME280;11753;43.144;24.714;2023-03-01T02:12:27;100400.91;;;6.62;100.00
23170;BME280;11753;43.144;24.714;2023-03-01T02:13:30;100406.03;;;6.63;100.00
23170;BME280;11753;43.144;24.714;2023-03-01T02:14:31;100404.91;;;6.55;100.00
23170;BME280;11753;43.144;24.714;2023-03-01T02:15:33;100404.47;;;6.61;100.00
23170;BME280;11753;43.144;24.714;2023-03-01T02:16:35;100404.69;;;6.58;100.00
23170;BME280;11753;43.144;24.714;2023-03-01T02:17:37;100407.81;;;6.63;100.00
23170;BME280;11753;43.144;24.714;2023-03-01T02:18:39;100402.78;;;6.73;100.00
23170;BME280;11753;43.144;24.714;2023-03-01T02:21:49;100408.22;;;6.70;100.00
23170;BME280;11753;43.144;24.714;2023-03-01T02:22:55;100402.97;;;6.70;100.00
23170;BME280;11753;43.144;24.714;2023-03-01T02:23:56;100403.19;;;6.67;100.00
23170;BME280;11753;43.144;24.714;2023-03-01T02:29:01;100409.56;;;6.75;100.00
23170;BME280;11753;43.144;24.714;2023-03-01T02:30:02;100407.25;;;6.71;100.00
23170;BME280;11753;43.144;24.714;2023-03-01T02:31:06;100403.09;;;6.68;100.00
23170;BME280;11753;43.144;24.714;2023-03-01T02:32:26;100403.31;;;6.65;100.00
23170;BME280;11753;43.144;24.714;2023-03-01T02:33:27;100402.25;;;6.68;100.00
23170;BME280;11753;43.144;24.714;2023-03-01T02:34:29;100403.19;;;6.67;100.00
23170;BME280;11753;43.144;24.714;2023-03-01T02:35:34;100398.41;;;6.60;100.00
23170;BME280;11753;43.144;24.714;2023-03-01T02:36:39;100399.88;;;6.65;100.00
23170;BME280;11753;43.144;24.714;2023-03-01T02:37:42;100393.81;;;6.51;100.00
23170;BME280;11753;43.144;24.714;2023-03-01T02:38:44;100395.28;;;6.55;100.00
23170;BME280;11753;43.144;24.714;2023-03-01T02:39:52;100403.06;;;6.44;100.00
23170;BME280;11753;43.144;24.714;2023-03-01T02:40:55;100391.13;;;6.40;100.00
23170;BME280;11753;43.144;24.714;2023-03-01T02:41:57;100392.38;;;6.47;100.00
23170;BME280;11753;43.144;24.714;2023-03-01T02:42:59;100399.25;;;6.48;100.00
23170;BME280;11753;43.144;24.714;2023-03-01T02:44:01;100399.06;;;6.51;100.00
23170;BME280;11753;43.144;24.714;2023-03-01T02:45:02;100399.91;;;6.52;100.00
23170;BME280;11753;43.144;24.714;2023-03-01T02:46:12;100394.25;;;6.45;100.00
23170;BME280;11753;43.144;24.714;2023-03-01T02:47:13;100396.88;;;6.45;100.00
23170;BME280;11753;43.144;24.714;2023-03-01T02:48:17;100388.63;;;6.39;100.00
23170;BME280;11753;43.144;24.714;2023-03-01T02:49:31;100396.53;;;6.50;100.00
23170;BME280;11753;43.144;24.714;2023-03-01T02:55:48;100398.84;;;6.54;100.00
23170;BME280;11753;43.144;24.714;2023-03-01T02:56:49;100401.44;;;6.54;100.00
23170;BME280;11753;43.144;24.714;2023-03-01T02:57:50;100400.09;;;6.49;100.00
23170;BME280;11753;43.144;24.714;2023-03-01T02:58:52;100397.47;;;6.49;100.00
23170;BME280;11753;43.144;24.714;2023-03-01T02:59:55;100395.81;;;6.48;100.00
23170;BME280;11753;43.144;24.714;2023-03-01T03:00:57;100384.22;;;6.39;100.00
23170;BME280;11753;43.144;24.714;2023-03-01T03:02:00;100389.88;;;6.33;100.00
23170;BME280;11753;43.144;24.714;2023-03-01T03:03:01;100388.72;;;6.37;100.00
23170;BME280;11753;43.144;24.714;2023-03-01T03:04:10;100397.81;;;6.44;100.00
23170;BME280;11753;43.144;24.714;2023-03-01T03:05:19;100391.53;;;6.47;100.00
23170;BME280;11753;43.144;24.714;2023-03-01T03:06:20;100401.38;;;6.43;100.00
23170;BME280;11753;43.144;24.714;2023-03-01T03:07:21;100402.31;;;6.42;100.00
23170;BME280;11753;43.144;24.714;2023-03-01T03:08:22;100391.34;;;6.37;100.00
23170;BME280;11753;43.144;24.714;2023-03-01T03:09:24;100391.25;;;6.39;100.00
23170;BME280;11753;43.144;24.714;2023-03-01T03:10:31;100386.13;;;6.37;100.00
23170;BME280;11753;43.144;24.714;2023-03-01T03:11:32;100388.72;;;6.37;100.00
23170;BME280;11753;43.144;24.714;2023-03-01T03:12:33;100386.72;;;6.41;100.00
23170;BME280;11753;43.144;24.714;2023-03-01T03:13:34;100384.94;;;6.41;100.00
23170;BME280;11753;43.144;24.714;2023-03-01T03:14:35;100385.69;;;6.43;100.00
23170;BME280;11753;43.144;24.714;2023-03-01T03:15:37;100392.47;;;6.46;100.00
23170;BME280;11753;43.144;24.714;2023-03-01T03:16:43;100391.66;;;6.45;100.00
23170;BME280;11753;43.144;24.714;2023-03-01T03:17:45;100392.75;;;6.54;100.00
23170;BME280;11753;43.144;24.714;2023-03-01T03:18:46;100385.88;;;6.40;100.00
23170;BME280;11753;43.144;24.714;2023-03-01T03:19:47;100389.63;;;6.49;100.00
23170;BME280;11753;43.144;24.714;2023-03-01T03:20:48;100386.19;;;6.48;100.00
23170;BME280;11753;43.144;24.714;2023-03-01T03:21:53;100380.47;;;6.43;100.00
23170;BME280;11753;43.144;24.714;2023-03-01T03:22:55;100380.94;;;6.48;100.00
23170;BME280;11753;43.144;24.714;2023-03-01T03:23:57;100386.28;;;6.47;100.00
23170;BME280;11753;43.144;24.714;2023-03-01T03:24:58;100390.69;;;6.46;100.00
23170;BME280;11753;43.144;24.714;2023-03-01T03:25:58;100387.97;;;6.35;100.00
23170;BME280;11753;43.144;24.714;2023-03-01T03:26:59;100387.78;;;6.38;100.00
23170;BME280;11753;43.144;24.714;2023-03-01T03:28:00;100388.19;;;6.45;100.00
23170;BME280;11753;43.144;24.714;2023-03-01T03:29:01;100389.31;;;6.53;100.00
23170;BME280;11753;43.144;24.714;2023-03-01T03:30:04;100390.88;;;6.56;100.00
23170;BME280;11753;43.144;24.714;2023-03-01T03:31:09;100390.97;;;6.54;100.00
23170;BME280;11753;43.144;24.714;2023-03-01T03:32:10;100381.91;;;6.47;100.00
23170;BME280;11753;43.144;24.714;2023-03-01T03:33:11;100390.47;;;6.49;100.00
23170;BME280;11753;43.144;24.714;2023-03-01T03:34:12;100395.28;;;6.55;100.00
23170;BME280;11753;43.144;24.714;2023-03-01T03:35:21;100392.59;;;6.44;100.00
23170;BME280;11753;43.144;24.714;2023-03-01T03:36:25;100391.22;;;6.51;100.00
23170;BME280;11753;43.144;24.714;2023-03-01T03:37:26;100388.16;;;6.57;100.00
23170;BME280;11753;43.144;24.714;2023-03-01T03:38:46;100383.97;;;6.55;100.00
23170;BME280;11753;43.144;24.714;2023-03-01T03:39:50;100384.31;;;6.50;100.00
23170;BME280;11753;43.144;24.714;2023-03-01T03:41:04;100386.69;;;6.53;100.00
23170;BME280;11753;43.144;24.714;2023-03-01T03:42:06;100387.75;;;6.51;100.00
23170;BME280;11753;43.144;24.714;2023-03-01T03:43:17;100393.81;;;6.51;100.00
23170;BME280;11753;43.144;24.714;2023-03-01T03:44:20;100394.03;;;6.48;100.00
23170;BME280;11753;43.144;24.714;2023-03-01T03:45:21;100395.50;;;6.52;100.00
23170;BME280;11753;43.144;24.714;2023-03-01T03:46:22;100399.06;;;6.51;100.00
23170;BME280;11753;43.144;24.714;2023-03-01T03:47:23;100400.84;;;6.51;100.00
23170;BME280;11753;43.144;24.714;2023-03-01T03:48:25;100397.28;;;6.52;100.00
23170;BME280;11753;43.144;24.714;2023-03-01T03:49:26;100395.50;;;6.52;100.00
23170;BME280;11753;43.144;24.714;2023-03-01T03:50:27;100393.59;;;6.54;100.00
23170;BME280;11753;43.144;24.714;2023-03-01T03:51:28;100399.34;;;6.59;100.00
23170;BME280;11753;43.144;24.714;2023-03-01T03:52:29;100396.03;;;6.57;100.00
23170;BME280;11753;43.144;24.714;2023-03-01T03:53:30;100396.03;;;6.57;100.00
23170;BME280;11753;43.144;24.714;2023-03-01T03:54:31;100388.25;;;6.56;100.00
23170;BME280;11753;43.144;24.714;2023-03-01T03:55:32;100396.53;;;6.50;100.00
23170;BME280;11753;43.144;24.714;2023-03-01T03:56:34;100389.53;;;6.50;100.00
23170;BME280;11753;43.144;24.714;2023-03-01T03:57:36;100390.25;;;6.52;100.00
23170;BME280;11753;43.144;24.714;2023-03-01T03:58:40;100389.63;;;6.49;100.00
23170;BME280;11753;43.144;24.714;2023-03-01T04:01:01;100393.41;;;6.57;100.00
23170;BME280;11753;43.144;24.714;2023-03-01T04:02:02;100390.88;;;6.56;100.00
23170;BME280;11753;43.144;24.714;2023-03-01T04:03:24;100387.66;;;6.52;100.00
23170;BME280;11753;43.144;24.714;2023-03-01T04:04:25;100392.16;;;6.50;100.00
23170;BME280;11753;43.144;24.714;2023-03-01T04:05:27;100392.88;;;6.52;100.00
23170;BME280;11753;43.144;24.714;2023-03-01T04:06:28;100397.88;;;6.55;100.00
23170;BME280;11753;43.144;24.714;2023-03-01T04:07:29;100399.66;;;6.55;100.00
23170;BME280;11753;43.144;24.714;2023-03-01T04:08:30;100394.31;;;6.56;100.00
23170;BME280;11753;43.144;24.714;2023-03-01T04:09:31;100393.41;;;6.57;100.00
23170;BME280;11753;43.144;24.714;2023-03-01T04:10:35;100388.16;;;6.57;100.00
23170;BME280;11753;43.144;24.714;2023-03-01T04:11:37;100393.81;;;6.51;100.00
23170;BME280;11753;43.144;24.714;2023-03-01T04:12:39;100388.69;;;6.50;100.00
23170;BME280;11753;43.144;24.714;2023-03-01T04:13:40;100383.13;;;6.54;100.00
23170;BME280;11753;43.144;24.714;2023-03-01T04:14:41;100385.69;;;6.43;100.00
23170;BME280;11753;43.144;24.714;2023-03-01T04:15:43;100382.72;;;6.48;100.00
23170;BME280;11753;43.144;24.714;2023-03-01T04:16:44;100389.88;;;6.46;100.00
23170;BME280;11753;43.144;24.714;2023-03-01T04:17:46;100388.31;;;6.43;100.00
23170;BME280;11753;43.144;24.714;2023-03-01T04:18:47;100393.53;;;6.43;100.00
23170;BME280;11753;43.144;24.714;2023-03-01T04:19:48;100385.88;;;6.40;100.00
23170;BME280;11753;43.144;24.714;2023-03-01T04:20:49;100385.69;;;6.43;100.00
23170;BME280;11753;43.144;24.714;2023-03-01T04:21:53;100394.03;;;6.48;100.00
23170;BME280;11753;43.144;24.714;2023-03-01T04:22:59;100388.19;;;6.45;100.00
23170;BME280;11753;43.144;24.714;2023-03-01T04:24:00;100387.84;;;6.49;100.00
23170;BME280;11753;43.144;24.714;2023-03-01T04:25:02;100392.38;;;6.47;100.00
23170;BME280;11753;43.144;24.714;2023-03-01T04:26:05;100389.75;;;6.34;100.00
23170;BME280;11753;43.144;24.714;2023-03-01T04:27:06;100394.16;;;6.47;100.00
23170;BME280;11753;43.144;24.714;2023-03-01T04:28:08;100398.78;;;6.43;100.00
23170;BME280;11753;43.144;24.714;2023-03-01T04:29:10;100388.72;;;6.37;100.00
23170;BME280;11753;43.144;24.714;2023-03-01T04:30:11;100391.13;;;6.40;100.00
23170;BME280;11753;43.144;24.714;2023-03-01T04:31:14;100391.13;;;6.40;100.00
23170;BME280;11753;43.144;24.714;2023-03-01T04:32:17;100392.50;;;6.33;100.00
23170;BME280;11753;43.144;24.714;2023-03-01T04:33:19;100397.00;;;6.31;100.00
23170;BME280;11753;43.144;24.714;2023-03-01T04:34:20;100392.19;;;6.25;100.00
23170;BME280;11753;43.144;24.714;2023-03-01T04:35:21;100389.69;;;6.23;100.00
23170;BME280;11753;43.144;24.714;2023-03-01T04:36:27;100394.09;;;6.10;100.00
23170;BME280;11753;43.144;24.714;2023-03-01T04:37:31;100402.06;;;6.09;100.00
23170;BME280;11753;43.144;24.714;2023-03-01T04:38:32;100403.50;;;6.13;100.00
23170;BME280;11753;43.144;24.714;2023-03-01T04:39:34;100395.03;;;5.96;100.00
23170;BME280;11753;43.144;24.714;2023-03-01T04:40:46;100391.78;;;6.05;100.00
23170;BME280;11753;43.144;24.714;2023-03-01T04:41:47;100392.97;;;6.01;100.00
23170;BME280;11753;43.144;24.714;2023-03-01T04:42:48;100391.91;;;6.04;100.00
23170;BME280;11753;43.144;24.714;2023-03-01T04:43:49;100394.28;;;6.07;100.00
23170;BME280;11753;43.144;24.714;2023-03-01T04:44:50;100392.22;;;5.99;100.00
23170;BME280;11753;43.144;24.714;2023-03-01T04:45:51;100386.97;;;5.99;100.00
23170;BME280;11753;43.144;24.714;2023-03-01T04:46:52;100395.34;;;6.04;100.00
23170;BME280;11753;43.144;24.714;2023-03-01T04:47:53;100386.56;;;6.05;100.00
23170;BME280;11753;43.144;24.714;2023-03-01T04:48:54;100392.75;;;6.04;100.00
23170;BME280;11753;43.144;24.714;2023-03-01T04:49:55;100398.91;;;6.03;100.00
23170;BME280;11753;43.144;24.714;2023-03-01T04:50:57;100400.03;;;5.99;100.00
23170;BME280;11753;43.144;24.714;2023-03-01T04:51:59;100397.44;;;5.99;100.00
23170;BME280;11753;43.144;24.714;2023-03-01T04:53:02;100396.53;;;6.00;100.00
23170;BME280;11753;43.144;24.714;2023-03-01T04:54:04;100397.25;;;6.02;100.00
23170;BME280;11753;43.144;24.714;2023-03-01T04:55:10;100391.78;;;6.05;100.00
23170;BME280;11753;43.144;24.714;2023-03-01T04:56:11;100389.41;;;6.02;100.00
23170;BME280;11753;43.144;24.714;2023-03-01T04:57:14;100396.28;;;6.03;100.00
23170;BME280;11753;43.144;24.714;2023-03-01T04:58:15;100393.03;;;6.13;100.00
23170;BME280;11753;43.144;24.714;2023-03-01T04:59:16;100389.94;;;6.07;100.00
23170;BME280;11753;43.144;24.714;2023-03-01T05:00:17;100394.22;;;6.09;100.00
23170;BME280;11753;43.144;24.714;2023-03-01T05:01:21;100396.06;;;6.06;100.00
23170;BME280;11753;43.144;24.714;2023-03-01T05:02:22;100393.69;;;6.03;100.00
23170;BME280;11753;43.144;24.714;2023-03-01T05:03:23;100396.81;;;6.09;100.00
23170;BME280;11753;43.144;24.714;2023-03-01T05:04:24;100400.56;;;6.04;100.00
23170;BME280;11753;43.144;24.714;2023-03-01T05:05:27;100401.41;;;6.05;100.00
23170;BME280;11753;43.144;24.714;2023-03-01T05:06:28;100395.16;;;6.07;100.00
23170;BME280;11753;43.144;24.714;2023-03-01T05:07:29;100394.81;;;5.99;100.00
23170;BME280;11753;43.144;24.714;2023-03-01T05:08:30;100397.84;;;6.06;100.00
23170;BME280;11753;43.144;24.714;2023-03-01T05:09:35;100400.38;;;6.07;100.00
23170;BME280;11753;43.144;24.714;2023-03-01T05:10:36;100401.00;;;6.11;100.00
23170;BME280;11753;43.144;24.714;2023-03-01T05:11:39;100397.03;;;6.05;100.00
23170;BME280;11753;43.144;24.714;2023-03-01T05:12:40;100406.22;;;6.11;100.00
23170;BME280;11753;43.144;24.714;2023-03-01T05:13:41;100403.19;;;6.04;100.00
23170;BME280;11753;43.144;24.714;2023-03-01T05:14:42;100392.22;;;5.99;100.00
23170;BME280;11753;43.144;24.714;2023-03-01T05:15:43;100400.56;;;6.04;100.00
23170;BME280;11753;43.144;24.714;2023-03-01T05:16:44;100397.34;;;6.01;100.00
23170;BME280;11753;43.144;24.714;2023-03-01T05:17:45;100395.34;;;6.04;100.00
23170;BME280;11753;43.144;24.714;2023-03-01T05:18:46;100391.69;;;6.07;100.00
23170;BME280;11753;43.144;24.714;2023-03-01T05:19:47;100389.06;;;6.07;100.00
23170;BME280;11753;43.144;24.714;2023-03-01T05:20:48;100393.25;;;6.10;100.00
23170;BME280;11753;43.144;24.714;2023-03-01T05:21:49;100395.16;;;6.07;100.00
23170;BME280;11753;43.144;24.714;2023-03-01T05:23:05;100393.91;;;6.00;100.00
23170;BME280;11753;43.144;24.714;2023-03-01T05:24:07;100394.81;;;5.99;100.00
23170;BME280;11753;43.144;24.714;2023-03-01T05:25:12;100397.25;;;6.02;100.00
23170;BME280;11753;43.144;24.714;2023-03-01T05:26:16;100394.41;;;6.05;100.00
23170;BME280;11753;43.144;24.714;2023-03-01T05:27:18;100398.91;;;6.03;100.00
23170;BME280;11753;43.144;24.714;2023-03-01T05:28:19;100394.22;;;5.96;100.00
23170;BME280;11753;43.144;24.714;2023-03-01T05:29:22;100392.09;;;6.14;100.00
23170;BME280;11753;43.144;24.714;2023-03-01T05:30:27;100396.00;;;6.08;100.00
23170;BME280;11753;43.144;24.714;2023-03-01T05:31:28;100390.75;;;5.95;100.00
23170;BME280;11753;43.144;24.714;2023-03-01T05:32:31;100398.78;;;6.05;100.00
23170;BME280;11753;43.144;24.714;2023-03-01T05:33:32;100395.75;;;5.98;100.00
23170;BME280;11753;43.144;24.714;2023-03-01T05:34:34;100396.28;;;5.91;100.00
23170;BME280;11753;43.144;24.714;2023-03-01T05:35:36;100396.59;;;5.86;100.00
23170;BME280;11753;43.144;24.714;2023-03-01T05:36:36;100391.25;;;5.88;100.00
23170;BME280;11753;43.144;24.714;2023-03-01T05:37:41;100395.53;;;5.89;100.00